Time;durP1;ratioP1;P1;durP2;ratioP2;P2;SDS_P1;SDS_P2;PMS_P1;PMS_P2;Temp;Humidity;BMP_temperature;BMP_pressure;BME280_temperature;BME280_humidity;BME280_pressure;Samples;Min_cycle;Max_cycle;Signal;HPM_P1;HPM_P2
2022/11/15 00:02:05;;;;;;;12.43;6.82;;;20.00;59.90;;;;;;10455145;28;20064;-31
2022/11/15 00:07:08;;;;;;;12.23;6.90;;;20.00;60.00;;;;;;10458993;28;20093;-34
2022/11/15 00:12:10;;;;;;;12.20;6.75;;;19.90;60.00;;;;;;10459439;28;20147;-31
2022/11/15 00:17:12;;;;;;;16.77;7.43;;;19.90;60.30;;;;;;10438830;28;20076;-31
2022/11/15 00:22:15;;;;;;;12.15;6.97;;;19.90;60.30;;;;;;10444018;28;20041;-32
2022/11/15 00:27:17;;;;;;;12.00;5.93;;;19.90;60.20;;;;;;10455636;28;20614;-30
2022/11/15 00:32:19;;;;;;;14.27;6.82;;;19.90;60.40;;;;;;10457329;28;20052;-31
2022/11/15 00:37:22;;;;;;;14.27;6.47;;;19.90;60.50;;;;;;10454534;28;20436;-32
2022/11/15 00:42:24;;;;;;;11.85;5.90;;;19.90;60.50;;;;;;10447662;28;20073;-36
2022/11/15 00:47:26;;;;;;;12.48;6.90;;;19.90;60.60;;;;;;10457461;28;20046;-31
2022/11/15 00:52:30;;;;;;;12.93;6.82;;;19.80;60.60;;;;;;10450939;28;20048;-31
2022/11/15 00:57:31;;;;;;;10.75;6.43;;;19.80;60.70;;;;;;10457271;28;20451;-27
2022/11/15 01:02:33;;;;;;;15.52;7.32;;;19.80;60.70;;;;;;10452214;28;20082;-31
2022/11/15 01:07:37;;;;;;;12.10;6.53;;;19.80;60.80;;;;;;10455975;28;20130;-28
2022/11/15 01:12:39;;;;;;;11.98;6.68;;;19.80;60.70;;;;;;10439532;28;20085;-31
2022/11/15 01:17:41;;;;;;;13.98;7.25;;;19.80;60.80;;;;;;10450790;28;20048;-32
2022/11/15 01:22:44;;;;;;;12.43;6.22;;;19.80;60.90;;;;;;10450329;28;20045;-31
2022/11/15 01:27:46;;;;;;;13.73;6.60;;;19.70;60.80;;;;;;10450659;28;20648;-31
2022/11/15 01:32:48;;;;;;;15.43;6.70;;;19.70;61.10;;;;;;10434189;28;20068;-33
2022/11/15 01:37:51;;;;;;;12.52;6.72;;;19.70;61.00;;;;;;10443055;28;20094;-31
2022/11/15 01:42:53;;;;;;;11.98;6.13;;;19.70;61.10;;;;;;10443308;28;20502;-33
2022/11/15 01:47:56;;;;;;;12.02;6.53;;;19.70;61.70;;;;;;10435359;28;20447;-30
2022/11/15 01:52:59;;;;;;;14.98;6.85;;;19.70;61.20;;;;;;10441745;28;20901;-31
2022/11/15 01:58:05;;;;;;;11.82;6.30;;;19.60;61.20;;;;;;10443799;28;20402;-31
2022/11/15 02:03:07;;;;;;;12.32;7.18;;;19.60;61.40;;;;;;10449088;28;20055;-32
2022/11/15 02:08:19;;;;;;;9.88;6.40;;;19.60;61.40;;;;;;10439305;28;20036;-29
2022/11/15 02:13:21;;;;;;;10.68;5.82;;;19.60;61.50;;;;;;10444041;28;20090;-32
2022/11/15 02:18:29;;;;;;;13.32;6.95;;;19.60;61.50;;;;;;10448561;28;20142;-31
2022/11/15 02:24:05;;;;;;;16.92;9.02;;;19.60;61.60;;;;;;10462016;28;20049;-31
2022/11/15 02:29:11;;;;;;;9.88;5.80;;;19.50;61.80;;;;;;10453910;28;20117;-32
2022/11/15 02:34:25;;;;;;;12.77;5.90;;;19.60;61.90;;;;;;10457981;28;20041;-30
2022/11/15 02:39:33;;;;;;;13.93;6.50;;;19.50;62.00;;;;;;10440225;28;20076;-31
2022/11/15 02:44:40;;;;;;;12.50;6.70;;;19.50;62.00;;;;;;10430445;28;20045;-30
2022/11/15 02:49:48;;;;;;;10.25;5.75;;;19.50;62.00;;;;;;10446121;28;20049;-33
2022/11/15 02:54:55;;;;;;;24.42;12.65;;;19.40;62.50;;;;;;10448279;28;20049;-31
2022/11/15 03:00:06;;;;;;;11.23;6.60;;;19.10;63.70;;;;;;10444599;28;20048;-31
2022/11/15 03:05:18;;;;;;;10.23;5.68;;;19.30;62.90;;;;;;10447908;28;20403;-33
2022/11/15 03:10:24;;;;;;;;;;;19.30;63.00;;;;;;10445440;28;20068;-31
2022/11/15 03:15:30;;;;;;;11.15;5.88;;;19.10;64.40;;;;;;10450718;28;19924;-31
2022/11/15 03:20:35;;;;;;;16.35;8.75;;;18.30;68.40;;;;;;10445299;28;20098;-31
2022/11/15 03:25:42;;;;;;;13.80;7.28;;;18.40;67.50;;;;;;10438199;28;20049;-29
2022/11/15 03:30:46;;;;;;;9.60;5.43;;;18.80;66.10;;;;;;10458537;28;20049;-32
2022/11/15 03:35:50;;;;;;;9.55;6.40;;;18.70;66.90;;;;;;10430404;28;20075;-33
2022/11/15 03:40:56;;;;;;;14.65;6.15;;;18.70;66.50;;;;;;10450165;28;20073;-32
2022/11/15 03:46:02;;;;;;;11.75;6.82;;;18.60;67.70;;;;;;10461675;28;20120;-32
2022/11/15 03:51:06;;;;;;;8.35;5.10;;;18.10;70.30;;;;;;10452249;28;20056;-32
2022/11/15 03:56:08;;;;;;;7.68;4.68;;;18.40;68.80;;;;;;10461838;28;20080;-32
2022/11/15 04:01:09;;;;;;;11.82;5.45;;;18.40;68.40;;;;;;10457580;28;20549;-31
2022/11/15 04:06:13;;;;;;;11.33;4.77;;;16.70;78.80;;;;;;10451274;28;20457;-30
2022/11/15 04:11:14;;;;;;;9.80;5.15;;;17.00;79.90;;;;;;10464634;28;20060;-31
2022/11/15 04:16:16;;;;;;;8.60;4.67;;;17.10;78.60;;;;;;10455101;28;20048;-30
2022/11/15 04:26:39;;;;;;;9.52;4.22;;;17.50;77.30;;;;;;10453053;28;20501;-32
2022/11/15 04:31:41;;;;;;;8.27;4.40;;;18.00;73.50;;;;;;10453883;28;20131;-30
2022/11/15 04:42:04;;;;;;;14.50;5.32;;;16.80;83.20;;;;;;10444742;28;20048;-33
2022/11/15 04:47:06;;;;;;;8.17;3.80;;;17.00;82.20;;;;;;10459115;28;20566;-33
2022/11/15 04:52:09;;;;;;;14.13;4.10;;;15.90;89.50;;;;;;10469012;28;20045;-30
2022/11/15 04:57:11;;;;;;;8.40;4.15;;;15.90;88.50;;;;;;10458506;28;20593;-29
2022/11/15 05:02:13;;;;;;;6.63;3.60;;;16.00;88.70;;;;;;10458737;28;20049;-29
2022/11/15 05:07:16;;;;;;;7.63;3.20;;;17.40;79.10;;;;;;10453360;28;20053;-31
2022/11/15 05:12:18;;;;;;;6.88;3.42;;;17.20;81.00;;;;;;10447357;28;20179;-30
2022/11/15 05:17:20;;;;;;;6.13;2.80;;;18.20;73.40;;;;;;10443413;28;20076;-29
2022/11/15 05:22:23;;;;;;;9.17;2.70;;;16.60;85.30;;;;;;10437096;28;20048;-32
2022/11/15 05:27:25;;;;;;;4.25;2.63;;;17.60;77.70;;;;;;10432728;28;20049;-31
2022/11/15 05:32:28;;;;;;;3.83;2.20;;;18.30;71.90;;;;;;10443605;28;20037;-32
2022/11/15 05:37:31;;;;;;;5.68;2.55;;;18.60;69.60;;;;;;10435957;28;20053;-31
2022/11/15 05:42:33;;;;;;;3.47;2.30;;;18.60;69.60;;;;;;10445075;28;20048;-33
2022/11/15 05:47:37;;;;;;;6.13;2.10;;;18.90;67.80;;;;;;10433028;28;20107;-31
2022/11/15 05:52:41;;;;;;;6.38;2.13;;;18.50;70.30;;;;;;10438570;28;20076;-31
2022/11/15 05:57:43;;;;;;;3.60;1.90;;;18.70;70.20;;;;;;10443319;28;20093;-31
2022/11/15 06:02:44;;;;;;;3.50;2.20;;;18.80;69.20;;;;;;10445926;28;20194;-37
2022/11/15 06:07:48;;;;;;;6.95;2.03;;;18.30;73.00;;;;;;10442058;28;20133;-31
2022/11/15 06:12:57;;;;;;;3.58;1.60;;;18.00;70.80;;;;;;10448590;28;20076;-30
2022/11/15 06:17:59;;;;;;;3.08;1.70;;;18.70;71.70;;;;;;10452753;28;20106;-31
2022/11/15 06:23:04;;;;;;;2.83;1.75;;;18.70;71.50;;;;;;10454706;28;20128;-32
2022/11/15 06:28:06;;;;;;;5.53;1.90;;;19.00;69.80;;;;;;10451968;28;20056;-30
2022/11/15 06:33:09;;;;;;;2.92;1.50;;;19.20;68.00;;;;;;10447656;28;20041;-34
2022/11/15 06:38:13;;;;;;;3.60;1.38;;;19.40;67.40;;;;;;10444388;28;20052;-29
2022/11/15 06:43:15;;;;;;;3.65;1.80;;;19.50;67.30;;;;;;10452784;28;20096;-32
2022/11/15 06:48:17;;;;;;;3.72;1.23;;;19.50;67.20;;;;;;10454432;28;20111;-31
2022/11/15 06:53:20;;;;;;;5.18;2.17;;;19.60;67.10;;;;;;10454078;28;20086;-35
2022/11/15 06:58:22;;;;;;;3.28;1.30;;;19.60;66.90;;;;;;10434490;28;20076;-35
2022/11/15 07:15:29;;;;;;;3.67;1.70;;;19.80;65.60;;;;;;10543473;27;20120;-32
2022/11/15 07:20:31;;;;;;;2.00;1.63;;;19.70;66.70;;;;;;10564787;28;20097;-34
2022/11/15 07:25:34;;;;;;;3.03;1.08;;;19.80;66.50;;;;;;10566345;28;20051;-31
2022/11/15 07:30:37;;;;;;;;;;;19.80;66.50;;;;;;10562158;28;20067;-30
2022/11/15 07:35:39;;;;;;;3.58;1.27;;;19.90;66.40;;;;;;10557616;28;19956;-32
2022/11/15 07:40:41;;;;;;;2.67;1.13;;;19.80;66.40;;;;;;10559282;28;20126;-31
2022/11/15 07:45:45;;;;;;;4.45;1.40;;;19.90;66.90;;;;;;10562444;28;20163;-31
2022/11/15 07:50:48;;;;;;;8.05;1.77;;;19.90;66.10;;;;;;10564091;28;20071;-31
2022/11/15 07:55:50;;;;;;;3.45;1.10;;;19.90;66.20;;;;;;10563100;28;20489;-31
2022/11/15 08:00:53;;;;;;;2.92;1.00;;;19.90;66.10;;;;;;10561848;28;20040;-32
2022/11/15 08:05:55;;;;;;;4.70;1.08;;;19.90;66.00;;;;;;10560995;28;20098;-29
2022/11/15 08:10:58;;;;;;;5.65;1.23;;;19.90;66.00;;;;;;10561121;28;20102;-33
2022/11/15 08:16:05;;;;;;;1.05;0.70;;;20.00;65.80;;;;;;10564086;28;20043;-31
2022/11/15 08:21:06;;;;;;;2.10;1.00;;;19.90;65.90;;;;;;10561615;28;20044;-31
2022/11/15 08:26:09;;;;;;;4.88;1.25;;;19.90;65.90;;;;;;10539375;28;20056;-31
2022/11/15 08:31:16;;;;;;;2.85;1.00;;;19.80;66.50;;;;;;10536145;28;20109;-37
2022/11/15 08:36:18;;;;;;;2.35;0.90;;;19.70;66.70;;;;;;10534694;28;20168;-32
2022/11/15 08:41:27;;;;;;;2.17;1.00;;;19.80;66.70;;;;;;10533913;28;20470;-30
2022/11/15 08:46:30;;;;;;;3.78;1.10;;;19.80;66.60;;;;;;10534604;28;20076;-31
2022/11/15 08:51:32;;;;;;;2.22;1.30;;;19.70;66.70;;;;;;10533513;28;20036;-31
2022/11/15 08:56:34;;;;;;;2.63;1.25;;;19.70;65.50;;;;;;10527569;28;20497;-30
2022/11/15 09:01:37;;;;;;;2.95;1.20;;;19.60;67.00;;;;;;10533388;28;20081;-29
2022/11/15 09:06:39;;;;;;;3.80;1.17;;;19.60;67.40;;;;;;10529812;28;20040;-31
2022/11/15 09:11:41;;;;;;;1.90;1.00;;;19.70;66.70;;;;;;10530137;28;20063;-33
2022/11/15 09:16:45;;;;;;;1.67;1.05;;;19.50;67.10;;;;;;10532632;28;20142;-31
2022/11/15 09:21:47;;;;;;;1.58;0.82;;;19.50;67.80;;;;;;10540760;28;20094;-30
2022/11/15 09:26:50;;;;;;;2.83;1.00;;;19.60;66.40;;;;;;10542772;28;20465;-30
2022/11/15 09:31:54;;;;;;;2.55;0.93;;;19.40;67.50;;;;;;10539751;28;20071;-31
2022/11/15 09:36:56;;;;;;;3.67;0.98;;;19.60;66.70;;;;;;10523676;28;20071;-29
2022/11/15 09:42:10;;;;;;;2.15;1.05;;;19.60;66.10;;;;;;10528975;28;20101;-35
2022/11/15 09:47:39;;;;;;;6.50;0.90;;;19.60;66.70;;;;;;10519723;28;20040;-40
2022/11/15 09:52:45;;;;;;;1.83;0.85;;;19.50;66.90;;;;;;10531862;28;20044;-31
2022/11/15 09:57:55;;;;;;;6.95;1.30;;;19.50;67.30;;;;;;10529222;28;20044;-35
2022/11/15 10:03:11;;;;;;;3.22;0.82;;;19.50;67.40;;;;;;10533769;28;20384;-32
2022/11/15 10:08:32;;;;;;;4.38;1.30;;;19.50;66.60;;;;;;10534431;28;20377;-33
2022/11/15 10:13:37;;;;;;;2.78;1.00;;;19.60;66.60;;;;;;10538138;28;20060;-34
2022/11/15 10:18:51;;;;;;;3.03;0.93;;;19.50;67.20;;;;;;10537051;28;20396;-32
2022/11/15 10:23:54;;;;;;;5.38;1.00;;;19.50;67.00;;;;;;10535974;28;20127;-32
2022/11/15 10:28:56;;;;;;;2.95;1.17;;;19.30;66.10;;;;;;10536218;28;20628;-31
2022/11/15 10:34:14;;;;;;;2.58;1.52;;;19.40;67.40;;;;;;10530018;28;20565;-34
2022/11/15 10:39:16;;;;;;;3.83;1.17;;;19.40;67.00;;;;;;10539598;28;20040;-34
2022/11/15 10:44:26;;;;;;;2.28;0.98;;;19.50;66.80;;;;;;10537858;27;20039;-33
2022/11/15 10:49:32;;;;;;;3.13;1.30;;;19.30;67.40;;;;;;10527398;28;20113;-29
2022/11/15 10:54:37;;;;;;;2.90;1.30;;;19.50;67.00;;;;;;10536380;28;20080;-32
2022/11/15 10:59:43;;;;;;;2.78;1.30;;;19.30;67.50;;;;;;10531939;28;20036;-36
2022/11/15 11:04:52;;;;;;;5.03;1.42;;;19.30;68.20;;;;;;10533657;28;20048;-31
2022/11/15 11:10:05;;;;;;;3.13;1.63;;;19.30;67.70;;;;;;10538691;28;20131;-30
2022/11/15 11:15:13;;;;;;;8.80;1.38;;;19.50;67.30;;;;;;10527237;28;20048;-30
2022/11/15 11:20:23;;;;;;;7.32;1.90;;;19.30;67.80;;;;;;10529922;28;20093;-31
2022/11/15 11:25:33;;;;;;;4.10;1.33;;;19.10;68.20;;;;;;10529381;28;20441;-31
2022/11/15 11:30:46;;;;;;;3.97;1.50;;;19.30;67.80;;;;;;10528480;28;20043;-30
2022/11/15 11:36:00;;;;;;;7.13;2.05;;;19.30;67.30;;;;;;10528346;28;20060;-29
2022/11/15 11:41:11;;;;;;;2.80;1.17;;;19.20;68.00;;;;;;10528027;28;20044;-32
2022/11/15 11:46:29;;;;;;;7.85;1.40;;;19.40;67.40;;;;;;10525276;28;20589;-30
2022/11/15 11:51:37;;;;;;;6.55;1.65;;;19.40;67.00;;;;;;10526304;28;20043;-32
2022/11/15 11:56:42;;;;;;;1.58;1.00;;;19.20;68.10;;;;;;10526802;28;20044;-32
2022/11/15 12:01:45;;;;;;;5.40;1.13;;;19.30;67.30;;;;;;10532897;28;20109;-31
2022/11/15 12:06:52;;;;;;;8.00;2.50;;;19.10;67.00;;;;;;10534749;28;20071;-31
2022/11/15 12:12:01;;;;;;;2.88;1.15;;;19.30;67.40;;;;;;10535623;28;20146;-30
2022/11/15 12:17:04;;;;;;;7.95;1.48;;;19.40;67.00;;;;;;10540701;28;20051;-32
2022/11/15 12:22:11;;;;;;;;;;;19.40;66.70;;;;;;10526428;28;20044;-35
2022/11/15 12:27:18;;;;;;;1.88;0.85;;;19.40;66.80;;;;;;10534699;28;20032;-32
2022/11/15 12:32:27;;;;;;;5.75;1.00;;;19.40;67.10;;;;;;10535057;28;20079;-31
2022/11/15 12:37:58;;;;;;;5.78;2.20;;;19.40;66.80;;;;;;10532141;28;20472;-31
2022/11/15 12:43:26;;;;;;;3.47;1.10;;;19.40;66.90;;;;;;10534516;28;20044;-32
2022/11/15 12:48:49;;;;;;;4.03;1.00;;;19.30;66.20;;;;;;10529640;28;20079;-29
2022/11/15 12:53:52;;;;;;;2.30;0.85;;;19.30;67.10;;;;;;10534483;28;20491;-30
2022/11/15 12:58:57;;;;;;;9.35;0.93;;;19.40;66.60;;;;;;10524629;28;20089;-30
2022/11/15 13:04:26;;;;;;;3.63;1.00;;;19.30;65.60;;;;;;10529142;28;20692;-31
2022/11/15 13:09:56;;;;;;;3.38;0.95;;;19.40;66.80;;;;;;10527299;28;20048;-31
2022/11/15 13:14:59;;;;;;;2.83;0.95;;;19.30;67.40;;;;;;10530418;28;20105;-33
2022/11/15 13:20:21;;;;;;;7.97;1.05;;;19.40;67.60;;;;;;10531736;28;20065;-35
2022/11/15 13:25:39;;;;;;;5.57;1.30;;;19.60;68.40;;;;;;10527807;28;20068;-28
2022/11/15 13:30:49;;;;;;;6.05;1.30;;;19.70;67.60;;;;;;10535890;28;20807;-31
2022/11/15 13:35:55;;;;;;;1.95;0.70;;;19.80;67.80;;;;;;10532109;28;20089;-30
2022/11/15 13:40:59;;;;;;;4.88;1.00;;;20.00;67.00;;;;;;10528677;28;20424;-34
2022/11/15 13:46:13;;;;;;;0.60;0.50;;;20.10;66.70;;;;;;10526871;28;20071;-31
2022/11/15 13:51:22;;;;;;;4.30;0.98;;;20.20;66.40;;;;;;10530719;28;20048;-29
2022/11/15 13:56:28;;;;;;;3.90;1.00;;;20.20;66.40;;;;;;10521315;28;20048;-32
2022/11/15 14:01:32;;;;;;;5.55;0.80;;;20.40;65.90;;;;;;10531112;28;20051;-33
2022/11/15 14:06:45;;;;;;;3.13;0.88;;;20.30;66.60;;;;;;10528365;28;20055;-32
2022/11/15 14:11:53;;;;;;;2.45;0.80;;;20.40;65.50;;;;;;10520331;28;20128;-31
2022/11/15 14:16:56;;;;;;;2.88;0.95;;;20.30;66.10;;;;;;10531628;28;20084;-32
2022/11/15 14:22:14;;;;;;;5.35;1.10;;;20.30;66.50;;;;;;10530447;28;20120;-31
2022/11/15 14:27:28;;;;;;;4.07;1.05;;;20.40;66.10;;;;;;10530411;28;20575;-33
2022/11/15 14:32:42;;;;;;;4.63;0.90;;;20.50;65.80;;;;;;10530360;28;20055;-31
2022/11/15 14:37:44;;;;;;;3.28;1.00;;;20.40;66.40;;;;;;10520568;28;20054;-31
2022/11/15 14:42:49;;;;;;;4.07;1.00;;;20.40;65.90;;;;;;10528498;28;20098;-33
2022/11/15 14:47:51;;;;;;;4.20;1.15;;;20.30;66.80;;;;;;10531700;28;20040;-32
2022/11/15 14:52:53;;;;;;;3.22;0.93;;;20.50;66.10;;;;;;10534131;28;20060;-31
2022/11/15 14:57:56;;;;;;;3.47;0.70;;;20.50;66.10;;;;;;10531862;28;20044;-34
2022/11/15 15:02:58;;;;;;;4.82;1.08;;;20.60;66.00;;;;;;10527086;28;20051;-30
2022/11/15 15:08:00;;;;;;;0.70;0.43;;;20.60;66.00;;;;;;10525919;28;20068;-31
2022/11/15 15:13:04;;;;;;;0.73;0.60;;;20.60;66.00;;;;;;10524106;28;20751;-31
2022/11/15 15:18:08;;;;;;;1.88;0.82;;;20.60;65.90;;;;;;10534972;28;20497;-33
2022/11/15 15:23:16;;;;;;;3.90;0.47;;;20.60;66.00;;;;;;10528826;28;20040;-31
2022/11/15 15:28:22;;;;;;;3.53;0.88;;;20.50;66.30;;;;;;10530003;28;20831;-30
2022/11/15 15:33:24;;;;;;;7.43;1.00;;;20.20;66.60;;;;;;10531158;28;20079;-39
2022/11/15 15:38:26;;;;;;;3.15;0.70;;;20.70;67.00;;;;;;10536621;28;20036;-30
2022/11/15 15:43:29;;;;;;;3.63;0.82;;;20.70;67.80;;;;;;10535949;28;20048;-31
2022/11/15 15:48:33;;;;;;;2.92;0.60;;;20.80;66.60;;;;;;10537062;28;20064;-33
2022/11/15 15:53:35;;;;;;;6.10;0.80;;;20.70;67.10;;;;;;10533962;28;20428;-32
2022/11/15 15:58:38;;;;;;;3.72;0.60;;;20.70;67.10;;;;;;10527394;28;20047;-36
2022/11/15 16:03:40;;;;;;;1.77;0.60;;;20.30;68.50;;;;;;10533429;28;20127;-30
2022/11/15 16:08:42;;;;;;;3.97;0.52;;;20.70;67.80;;;;;;10531483;28;20459;-29
2022/11/15 16:13:45;;;;;;;1.75;0.65;;;20.90;69.80;;;;;;10531562;28;20064;-34
2022/11/15 16:18:47;;;;;;;1.17;0.70;;;21.00;67.10;;;;;;10534352;28;20075;-32
2022/11/15 16:23:49;;;;;;;2.72;0.68;;;20.70;67.90;;;;;;10536519;28;20192;-34
2022/11/15 16:28:53;;;;;;;2.40;0.93;;;20.60;68.60;;;;;;10532068;28;20499;-31
2022/11/15 16:33:54;;;;;;;5.53;1.48;;;20.70;68.10;;;;;;10529055;28;20109;-30
2022/11/15 16:38:56;;;;;;;7.80;0.70;;;20.80;67.80;;;;;;10535446;28;20073;-32
2022/11/15 16:44:00;;;;;;;1.67;0.70;;;20.80;68.20;;;;;;10537949;28;20059;-32
2022/11/15 16:49:01;;;;;;;2.35;0.65;;;20.80;68.30;;;;;;10536270;28;20044;-32
2022/11/15 16:54:03;;;;;;;4.70;0.93;;;20.80;68.30;;;;;;10532689;28;20102;-30
2022/11/15 16:59:08;;;;;;;3.95;0.60;;;20.70;68.50;;;;;;10532737;28;20098;-31
2022/11/15 17:04:12;;;;;;;1.73;0.50;;;20.70;68.80;;;;;;10531785;28;20076;-30
2022/11/15 17:09:16;;;;;;;2.83;0.63;;;20.80;69.00;;;;;;10532948;28;20054;-30
2022/11/15 17:14:19;;;;;;;2.70;1.17;;;20.80;68.80;;;;;;10523511;28;20262;-29
2022/11/15 17:19:21;;;;;;;10.90;0.82;;;20.80;68.70;;;;;;10522001;28;20105;-28
2022/11/15 17:24:23;;;;;;;5.78;0.82;;;20.80;68.50;;;;;;10526322;28;20048;-35
2022/11/15 17:29:26;;;;;;;4.35;0.85;;;20.70;69.10;;;;;;10521855;28;20542;-31
2022/11/15 17:34:29;;;;;;;1.88;0.40;;;20.80;68.90;;;;;;10521895;28;20056;-30
2022/11/15 17:39:31;;;;;;;2.03;0.77;;;20.70;69.50;;;;;;10528297;28;20127;-30
2022/11/15 17:44:34;;;;;;;3.20;0.70;;;20.70;69.30;;;;;;10541019;28;20341;-32
2022/11/15 17:49:39;;;;;;;1.92;0.70;;;20.60;69.70;;;;;;10533575;28;20123;-32
2022/11/15 17:54:41;;;;;;;1.90;0.70;;;20.60;70.00;;;;;;10532758;28;20489;-29
2022/11/15 17:59:44;;;;;;;2.28;0.70;;;20.40;70.90;;;;;;10528939;28;20052;-30
2022/11/15 18:04:46;;;;;;;1.95;0.80;;;20.60;70.30;;;;;;10530982;28;20112;-32
2022/11/15 18:09:48;;;;;;;2.00;1.00;;;20.50;71.10;;;;;;10521486;28;20197;-32
2022/11/15 18:14:51;;;;;;;2.30;1.63;;;20.00;71.40;;;;;;10535168;28;21656;-35
2022/11/15 18:19:53;;;;;;;4.88;1.92;;;20.00;74.30;;;;;;10530692;28;20123;-34
2022/11/15 18:24:55;;;;;;;3.67;1.55;;;20.10;73.80;;;;;;10531827;28;20093;-31
2022/11/15 18:29:58;;;;;;;2.42;1.65;;;20.20;73.00;;;;;;10525641;28;20781;-28
2022/11/15 18:35:00;;;;;;;7.57;2.65;;;20.10;73.40;;;;;;10531642;28;20051;-32
2022/11/15 18:40:03;;;;;;;6.07;2.78;;;20.10;73.00;;;;;;10529808;28;20153;-34
2022/11/15 18:45:06;;;;;;;;;;;20.00;74.20;;;;;;10532056;28;20132;-29
2022/11/15 18:50:09;;;;;;;4.10;2.60;;;20.00;73.60;;;;;;10527946;28;19924;-26
2022/11/15 18:55:12;;;;;;;4.70;2.70;;;19.80;74.80;;;;;;10533440;28;20044;-28
2022/11/15 19:00:17;;;;;;;3.95;1.98;;;19.80;74.70;;;;;;10521463;28;20063;-31
2022/11/15 19:05:20;;;;;;;4.68;2.05;;;19.80;75.30;;;;;;10526302;28;20039;-33
2022/11/15 19:10:22;;;;;;;2.15;1.55;;;20.20;73.50;;;;;;10519252;28;20071;-29
2022/11/15 19:15:26;;;;;;;2.35;1.20;;;20.40;72.50;;;;;;10524467;28;20669;-30
2022/11/15 19:20:28;;;;;;;1.80;1.05;;;20.40;72.20;;;;;;10521802;28;20045;-35
2022/11/15 19:25:30;;;;;;;5.90;1.10;;;20.40;72.80;;;;;;10516106;28;20051;-33
2022/11/15 19:30:33;;;;;;;2.60;1.00;;;20.40;72.30;;;;;;10526448;28;20576;-32
2022/11/15 19:35:35;;;;;;;4.03;1.00;;;20.40;72.30;;;;;;10521268;28;20109;-32
2022/11/15 19:40:37;;;;;;;6.63;1.90;;;20.50;72.50;;;;;;10524638;28;20062;-29
2022/11/15 19:45:40;;;;;;;;;;;20.50;72.80;;;;;;10528041;28;20093;-27
2022/11/15 19:50:42;;;;;;;2.55;0.95;;;20.50;73.20;;;;;;10521572;28;19924;-28
2022/11/15 19:55:53;;;;;;;1.17;0.73;;;20.50;73.20;;;;;;10525850;28;20087;-28
2022/11/15 20:01:02;;;;;;;1.07;0.77;;;20.60;72.90;;;;;;10525477;28;20051;-30
2022/11/15 20:06:06;;;;;;;1.98;0.80;;;20.60;72.60;;;;;;10522956;28;20581;-30
2022/11/15 20:11:08;;;;;;;2.97;0.93;;;20.60;73.10;;;;;;10519824;28;20561;-33
2022/11/15 20:16:15;;;;;;;3.70;1.20;;;20.50;73.20;;;;;;10525258;28;20138;-33
2022/11/15 20:21:18;;;;;;;3.95;0.93;;;20.60;72.80;;;;;;10525242;28;20051;-29
2022/11/15 20:26:20;;;;;;;2.20;1.00;;;20.60;72.40;;;;;;10526744;28;20052;-29
2022/11/15 20:31:23;;;;;;;3.50;1.70;;;20.60;72.80;;;;;;10534950;28;20060;-27
2022/11/15 20:36:25;;;;;;;3.63;1.10;;;20.40;73.80;;;;;;10522127;28;20048;-31
2022/11/15 20:41:27;;;;;;;4.05;1.02;;;20.60;73.00;;;;;;10527951;28;20079;-29
2022/11/15 20:46:30;;;;;;;3.00;1.42;;;20.50;72.50;;;;;;10527922;28;20186;-30
2022/11/15 20:51:32;;;;;;;6.28;1.23;;;20.50;72.40;;;;;;10527824;28;20048;-32
2022/11/15 20:56:34;;;;;;;6.45;1.35;;;20.60;72.10;;;;;;10532644;28;20051;-28
2022/11/15 21:01:38;;;;;;;3.05;1.70;;;20.50;72.30;;;;;;10529603;28;20067;-30
2022/11/15 21:06:40;;;;;;;3.65;1.33;;;20.50;72.10;;;;;;10531302;28;20048;-28
2022/11/15 21:17:03;;;;;;;3.42;1.35;;;20.50;72.20;;;;;;10528654;28;20044;-31
2022/11/15 21:22:08;;;;;;;3.60;1.20;;;20.50;72.00;;;;;;10534588;28;20036;-30
2022/11/15 21:27:10;;;;;;;6.35;1.70;;;20.60;71.90;;;;;;10531336;28;20040;-33
2022/11/15 21:32:13;;;;;;;3.20;1.20;;;20.60;71.60;;;;;;10532383;28;20466;-32
2022/11/15 21:37:15;;;;;;;3.45;1.45;;;20.50;71.60;;;;;;10525817;28;20056;-32
2022/11/15 21:42:17;;;;;;;7.43;1.95;;;20.40;72.00;;;;;;10526762;28;20044;-29
2022/11/15 21:47:20;;;;;;;2.88;1.42;;;20.50;72.00;;;;;;10533507;28;20079;-34
2022/11/15 21:52:22;;;;;;;6.90;1.42;;;20.50;71.80;;;;;;10532056;28;20040;-31
2022/11/15 21:57:24;;;;;;;5.45;1.52;;;20.50;71.90;;;;;;10529713;28;20143;-30
2022/11/15 22:02:27;;;;;;;4.53;1.50;;;20.50;71.90;;;;;;10533356;28;20071;-33
2022/11/15 22:07:29;;;;;;;5.47;2.10;;;20.50;72.10;;;;;;10532953;28;20044;-26
2022/11/15 22:12:31;;;;;;;3.28;1.00;;;20.30;72.40;;;;;;10531481;28;20532;-29
2022/11/15 22:22:54;;;;;;;5.82;1.30;;;20.40;72.30;;;;;;10528078;28;20055;-27
2022/11/15 22:27:56;;;;;;;2.22;1.02;;;20.40;72.30;;;;;;10528089;28;20130;-28
2022/11/15 22:32:59;;;;;;;4.15;1.65;;;20.40;72.20;;;;;;10525683;28;20687;-30
2022/11/15 22:38:01;;;;;;;5.20;2.08;;;20.30;72.80;;;;;;10528550;28;20048;-29
2022/11/15 22:43:03;;;;;;;4.10;1.70;;;20.10;73.70;;;;;;10524291;28;20055;-28
2022/11/15 22:48:06;;;;;;;4.13;1.58;;;20.30;72.60;;;;;;10511717;28;20043;-28
2022/11/15 22:53:09;;;;;;;4.40;1.42;;;20.30;72.80;;;;;;10524619;28;20040;-29
2022/11/15 22:58:10;;;;;;;3.70;1.52;;;20.30;72.60;;;;;;10525858;28;20109;-30
2022/11/15 23:03:14;;;;;;;4.28;2.13;;;20.20;73.30;;;;;;10518761;28;20044;-36
2022/11/15 23:08:18;;;;;;;3.65;1.25;;;20.30;72.60;;;;;;10521881;28;20131;-32
2022/11/15 23:13:20;;;;;;;4.60;1.52;;;20.30;72.60;;;;;;10519104;28;20104;-32
2022/11/15 23:18:23;;;;;;;2.78;1.80;;;20.20;72.70;;;;;;10522329;28;20096;-33
2022/11/15 23:23:25;;;;;;;2.35;1.55;;;20.20;72.90;;;;;;10527525;28;20044;-29
2022/11/15 23:28:26;;;;;;;5.20;1.65;;;20.20;73.10;;;;;;10523660;28;20044;-29
2022/11/15 23:38:49;;;;;;;1.77;1.20;;;20.10;73.50;;;;;;10520332;28;20131;-30
2022/11/15 23:43:52;;;;;;;2.15;1.25;;;20.20;73.10;;;;;;10520725;28;20067;-31
2022/11/15 23:48:55;;;;;;;;;;;20.10;73.50;;;;;;10518654;28;20550;-28
2022/11/15 23:53:57;;;;;;;4.35;1.52;;;20.20;73.20;;;;;;10520948;28;20020;-27
2022/11/15 23:58:59;;;;;;;3.17;1.58;;;20.10;73.40;;;;;;10536020;28;20489;-30
